createdAt,value
2023-08-13T00:00:02.750Z,21.91
2023-08-13T00:05:11.462Z,21.86
2023-08-13T00:07:38.677Z,21.84
2023-08-13T00:10:07.130Z,21.81
2023-08-13T00:12:33.995Z,21.91
2023-08-13T00:15:02.181Z,21.98
2023-08-13T00:17:29.332Z,21.79
2023-08-13T00:19:56.296Z,21.91
2023-08-13T00:22:23.537Z,22.05
2023-08-13T00:24:52.563Z,21.71
2023-08-13T00:27:23.488Z,21.88
2023-08-13T00:29:51.042Z,21.75
2023-08-13T00:32:18.070Z,21.65
2023-08-13T00:34:45.023Z,21.90
2023-08-13T00:37:12.016Z,21.79
2023-08-13T00:39:38.677Z,21.36
2023-08-13T00:42:05.525Z,21.63
2023-08-13T00:44:32.251Z,21.45
2023-08-13T00:46:59.089Z,21.45
2023-08-13T00:49:26.017Z,21.59
2023-08-13T00:51:53.038Z,21.96
2023-08-13T00:54:20.027Z,21.72
2023-08-13T00:56:48.255Z,21.43
2023-08-13T00:59:15.632Z,21.40
2023-08-13T01:01:43.860Z,21.09
2023-08-13T01:04:11.089Z,21.87
2023-08-13T01:06:50.988Z,22.07
2023-08-13T01:09:23.989Z,20.82
2023-08-13T01:12:01.391Z,21.25
2023-08-13T01:14:34.199Z,21.38
2023-08-13T01:17:01.758Z,21.27
2023-08-13T01:19:28.927Z,21.32
2023-08-13T01:21:55.785Z,20.96
2023-08-13T01:24:22.913Z,21.26
2023-08-13T01:26:54.009Z,20.81
2023-08-13T01:29:28.015Z,21.06
2023-08-13T01:31:58.915Z,21.11
2023-08-13T01:34:26.466Z,21.07
2023-08-13T01:36:54.188Z,21.29
2023-08-13T01:39:21.387Z,21.15
2023-08-13T01:41:56.123Z,21.47
2023-08-13T01:44:23.035Z,21.39
2023-08-13T01:46:50.492Z,21.14
2023-08-13T01:49:17.229Z,20.92
2023-08-13T01:52:09.531Z,20.99
2023-08-13T01:54:37.013Z,21.12
2023-08-13T01:57:03.960Z,20.87
2023-08-13T01:59:33.217Z,20.69
2023-08-13T02:02:03.532Z,20.84
2023-08-13T02:04:30.468Z,21.05
2023-08-13T02:07:14.700Z,20.75
2023-08-13T02:09:50.659Z,20.82
2023-08-13T02:12:17.636Z,20.85
2023-08-13T02:14:53.724Z,20.63
2023-08-13T02:17:20.605Z,20.41
2023-08-13T02:19:56.728Z,20.66
2023-08-13T02:22:23.543Z,20.66
2023-08-13T02:24:50.713Z,20.63
2023-08-13T02:27:17.494Z,20.65
2023-08-13T02:29:44.365Z,20.61
2023-08-13T02:32:12.108Z,20.89
2023-08-13T02:34:47.022Z,20.80
2023-08-13T02:37:14.004Z,20.61
2023-08-13T02:39:40.955Z,20.25
2023-08-13T02:42:07.816Z,20.45
2023-08-13T02:44:34.510Z,20.14
2023-08-13T02:47:01.525Z,20.34
2023-08-13T02:49:28.632Z,20.15
2023-08-13T02:51:55.328Z,20.42
2023-08-13T02:54:22.059Z,20.19
2023-08-13T02:56:48.909Z,20.18
2023-08-13T02:59:15.628Z,20.17
2023-08-13T03:01:42.770Z,19.95
2023-08-13T03:04:09.634Z,20.03
2023-08-13T03:06:38.279Z,20.26
2023-08-13T03:09:06.115Z,20.46
2023-08-13T03:11:33.108Z,20.19
2023-08-13T03:14:00.604Z,20.28
2023-08-13T03:16:27.511Z,20.15
2023-08-13T03:19:08.984Z,19.99
2023-08-13T03:21:37.962Z,19.98
2023-08-13T03:24:09.605Z,20.13
2023-08-13T03:26:40.224Z,20.03
2023-08-13T03:29:07.879Z,20.04
2023-08-13T03:31:38.575Z,19.74
2023-08-13T03:34:05.408Z,19.84
2023-08-13T03:36:32.735Z,20.02
2023-08-13T03:39:00.190Z,19.96
2023-08-13T03:41:27.610Z,19.75
2023-08-13T03:43:54.901Z,19.71
2023-08-13T03:46:22.082Z,19.97
2023-08-13T03:48:49.305Z,20.39
2023-08-13T03:51:16.741Z,20.42
2023-08-13T03:53:44.292Z,20.79
2023-08-13T03:56:12.074Z,20.71
2023-08-13T03:58:39.863Z,20.59
2023-08-13T04:01:07.714Z,20.01
2023-08-13T04:03:35.278Z,19.94
2023-08-13T04:06:02.016Z,20.09
2023-08-13T04:08:28.699Z,19.75
2023-08-13T04:10:55.951Z,20.26
2023-08-13T04:13:22.746Z,19.96
2023-08-13T04:15:50.942Z,19.79
2023-08-13T04:18:17.775Z,19.74
2023-08-13T04:20:44.455Z,20.01
2023-08-13T04:23:17.499Z,20.24
2023-08-13T04:25:44.228Z,20.41
2023-08-13T04:28:10.881Z,20.05
2023-08-13T04:30:37.550Z,19.48
2023-08-13T04:33:04.411Z,19.72
2023-08-13T04:35:34.082Z,19.61
2023-08-13T04:38:00.761Z,19.93
2023-08-13T04:40:27.448Z,19.93
2023-08-13T04:42:54.089Z,20.02
2023-08-13T04:45:20.764Z,20.22
2023-08-13T04:47:47.742Z,19.79
2023-08-13T04:50:14.830Z,19.92
2023-08-13T04:52:41.536Z,20.45
2023-08-13T04:55:08.470Z,21.16
2023-08-13T04:57:35.117Z,20.80
2023-08-13T05:00:13.043Z,21.16
2023-08-13T05:02:40.065Z,21.06
2023-08-13T05:05:06.892Z,21.86
2023-08-13T05:07:33.659Z,21.85
2023-08-13T05:10:00.552Z,22.56
2023-08-13T05:12:27.234Z,22.24
2023-08-13T05:14:54.218Z,22.52
2023-08-13T05:17:21.633Z,22.14
2023-08-13T05:19:48.584Z,22.93
2023-08-13T05:22:15.616Z,23.18
2023-08-13T05:24:42.743Z,23.96
2023-08-13T05:27:09.709Z,23.20
2023-08-13T05:29:36.690Z,23.44
2023-08-13T05:32:03.646Z,23.98
2023-08-13T05:34:30.471Z,23.92
2023-08-13T05:36:57.222Z,23.36
2023-08-13T05:39:24.125Z,23.66
2023-08-13T05:41:50.802Z,23.81
2023-08-13T05:44:17.605Z,24.43
2023-08-13T05:46:44.356Z,23.67
2023-08-13T05:49:11.020Z,25.04
2023-08-13T05:51:37.667Z,24.96
2023-08-13T05:54:04.407Z,24.42
2023-08-13T05:56:31.048Z,24.49
2023-08-13T05:58:57.707Z,25.24
2023-08-13T06:01:24.468Z,25.76
2023-08-13T06:03:51.211Z,26.10
2023-08-13T06:06:17.956Z,25.44
2023-08-13T06:08:44.519Z,25.50
2023-08-13T06:11:11.135Z,24.98
2023-08-13T06:13:40.374Z,26.11
2023-08-13T06:16:07.512Z,26.22
2023-08-13T06:18:35.472Z,26.21
2023-08-13T06:21:05.098Z,26.32
2023-08-13T06:23:32.058Z,26.32
2023-08-13T06:25:58.916Z,26.73
2023-08-13T06:28:25.585Z,26.88
2023-08-13T06:30:52.281Z,26.22
2023-08-13T06:33:18.955Z,27.30
2023-08-13T06:35:46.068Z,27.45
2023-08-13T06:38:12.676Z,27.09
2023-08-13T06:40:39.298Z,27.04
2023-08-13T06:43:06.050Z,27.13
2023-08-13T06:45:32.703Z,27.48
2023-08-13T06:47:59.863Z,26.05
2023-08-13T06:50:28.212Z,26.51
2023-08-13T06:52:55.118Z,26.12
2023-08-13T06:55:21.889Z,26.45
2023-08-13T06:57:48.557Z,27.04
2023-08-13T07:00:16.270Z,27.63
2023-08-13T07:02:43.547Z,27.44
2023-08-13T07:05:10.946Z,27.08
2023-08-13T07:07:37.576Z,27.53
2023-08-13T07:10:05.400Z,26.61
2023-08-13T07:12:31.964Z,26.61
2023-08-13T07:14:58.840Z,27.09
2023-08-13T07:17:25.621Z,27.79
2023-08-13T07:19:52.326Z,27.78
2023-08-13T07:22:20.637Z,27.88
2023-08-13T07:24:47.267Z,27.56
2023-08-13T07:27:13.964Z,27.23
2023-08-13T07:29:40.571Z,27.61
2023-08-13T07:32:07.416Z,27.88
2023-08-13T07:34:34.142Z,27.81
2023-08-13T07:37:00.870Z,28.45
2023-08-13T07:39:27.663Z,27.38
2023-08-13T07:41:54.848Z,27.73
2023-08-13T07:44:21.487Z,28.26
2023-08-13T07:46:51.979Z,28.11
2023-08-13T07:49:18.655Z,28.01
2023-08-13T07:51:45.286Z,27.89
2023-08-13T07:54:12.088Z,28.73
2023-08-13T07:56:41.018Z,27.82
2023-08-13T08:02:07.711Z,28.88
2023-08-13T08:04:35.208Z,28.81
2023-08-13T08:07:06.794Z,28.13
2023-08-13T08:09:33.611Z,29.10
2023-08-13T08:12:00.253Z,28.89
2023-08-13T08:14:26.889Z,28.32
2023-08-13T08:16:58.786Z,28.13
2023-08-13T08:19:25.518Z,28.75
2023-08-13T08:21:52.390Z,29.34
2023-08-13T08:24:19.042Z,29.94
2023-08-13T08:26:45.693Z,29.51
2023-08-13T08:29:12.469Z,29.69
2023-08-13T08:31:39.044Z,29.08
2023-08-13T08:34:05.765Z,29.25
2023-08-13T08:36:32.490Z,29.42
2023-08-13T08:38:59.273Z,29.62
2023-08-13T08:41:28.777Z,29.36
2023-08-13T08:43:55.911Z,29.42
2023-08-13T08:46:23.586Z,29.77
2023-08-13T08:48:50.845Z,30.28
2023-08-13T08:51:17.820Z,29.12
2023-08-13T08:53:45.837Z,30.18
2023-08-13T08:56:12.457Z,30.26
2023-08-13T08:58:39.071Z,29.53
2023-08-13T09:01:06.640Z,30.09
2023-08-13T09:03:33.338Z,29.92
2023-08-13T09:06:11.716Z,29.97
2023-08-13T09:08:46.629Z,29.99
2023-08-13T09:11:13.461Z,29.31
2023-08-13T09:13:59.344Z,29.68
2023-08-13T09:16:26.237Z,30.57
2023-08-13T09:19:04.176Z,28.66
2023-08-13T09:21:35.358Z,30.43
2023-08-13T09:24:02.014Z,29.85
2023-08-13T09:26:29.468Z,30.60
2023-08-13T09:28:56.160Z,30.86
2023-08-13T09:31:26.187Z,30.85
2023-08-13T09:33:52.953Z,31.06
2023-08-13T09:36:19.615Z,30.49
2023-08-13T09:38:46.275Z,31.43
2023-08-13T09:41:15.121Z,30.94
2023-08-13T09:43:44.145Z,31.24
2023-08-13T09:46:13.253Z,30.86
2023-08-13T09:48:41.110Z,31.23
2023-08-13T09:51:08.463Z,30.87
2023-08-13T09:53:36.253Z,31.17
2023-08-13T09:56:03.521Z,31.74
2023-08-13T09:58:31.245Z,31.55
2023-08-13T10:00:58.205Z,31.51
2023-08-13T10:03:25.511Z,31.67
2023-08-13T10:05:53.231Z,31.53
2023-08-13T10:08:20.273Z,31.82
2023-08-13T10:10:47.108Z,30.85
2023-08-13T10:13:13.871Z,30.58
2023-08-13T10:15:41.109Z,30.80
2023-08-13T10:18:07.877Z,31.54
2023-08-13T10:20:34.647Z,31.80
2023-08-13T10:23:02.897Z,31.35
2023-08-13T10:25:30.564Z,31.49
2023-08-13T10:27:57.705Z,31.05
2023-08-13T10:30:24.590Z,31.77
2023-08-13T10:33:04.711Z,31.00
2023-08-13T10:35:31.514Z,31.56
2023-08-13T10:38:00.429Z,31.68
2023-08-13T10:40:27.563Z,31.55
2023-08-13T10:42:57.710Z,31.61
2023-08-13T10:45:25.920Z,32.17
2023-08-13T10:47:57.244Z,31.93
2023-08-13T10:50:24.607Z,31.77
2023-08-13T10:52:56.332Z,32.19
2023-08-13T10:55:23.578Z,32.46
2023-08-13T10:57:53.621Z,31.83
2023-08-13T11:00:22.692Z,31.58
2023-08-13T11:03:01.754Z,32.04
2023-08-13T11:05:40.024Z,32.32
2023-08-13T11:08:09.919Z,31.84
2023-08-13T11:10:39.524Z,31.80
2023-08-13T11:13:15.525Z,30.74
2023-08-13T11:15:54.496Z,31.60
2023-08-13T11:18:22.694Z,32.17
2023-08-13T11:20:50.796Z,32.57
2023-08-13T11:23:18.827Z,31.79
2023-08-13T11:25:57.391Z,31.65
2023-08-13T11:28:28.911Z,31.29
2023-08-13T11:31:05.834Z,31.45
2023-08-13T11:33:47.553Z,31.95
2023-08-13T11:36:15.918Z,31.15
2023-08-13T11:38:44.199Z,32.35
2023-08-13T11:41:31.749Z,32.74
2023-08-13T11:44:00.749Z,32.22
2023-08-13T11:46:27.526Z,32.45
2023-08-13T11:48:54.922Z,32.77
2023-08-13T11:51:25.585Z,33.03
2023-08-13T11:53:52.658Z,32.59
2023-08-13T11:56:20.202Z,32.42
2023-08-13T11:58:47.224Z,31.94
2023-08-13T12:01:14.814Z,32.19
2023-08-13T12:03:42.779Z,31.02
2023-08-13T12:06:09.830Z,31.14
2023-08-13T12:08:36.575Z,30.84
2023-08-13T12:11:03.321Z,30.79
2023-08-13T12:13:30.352Z,30.45
2023-08-13T12:15:57.261Z,30.93
2023-08-13T12:18:23.934Z,30.31
2023-08-13T12:20:50.531Z,30.66
2023-08-13T12:23:17.444Z,30.63
2023-08-13T12:25:46.757Z,31.18
2023-08-13T12:28:14.733Z,31.04
2023-08-13T12:30:41.420Z,31.07
2023-08-13T12:33:08.588Z,31.58
2023-08-13T12:35:35.485Z,31.31
2023-08-13T12:38:02.071Z,31.32
2023-08-13T12:40:44.548Z,30.75
2023-08-13T12:43:11.287Z,30.18
2023-08-13T12:45:38.141Z,30.16
2023-08-13T12:48:05.198Z,30.25
2023-08-13T12:50:57.251Z,30.56
2023-08-13T12:53:24.363Z,30.84
2023-08-13T12:55:56.257Z,30.61
2023-08-13T12:58:23.317Z,30.15
2023-08-13T13:00:50.050Z,30.30
2023-08-13T13:03:17.568Z,30.30
2023-08-13T13:09:16.993Z,31.40
2023-08-13T13:11:47.154Z,31.43
2023-08-13T13:14:13.862Z,31.41
2023-08-13T13:16:40.656Z,31.07
2023-08-13T13:19:19.024Z,30.83
2023-08-13T13:21:46.102Z,30.72
2023-08-13T13:24:12.919Z,30.65
2023-08-13T13:26:39.539Z,30.70
2023-08-13T13:29:06.546Z,30.50
2023-08-13T13:31:33.316Z,30.51
2023-08-13T13:33:59.959Z,30.62
2023-08-13T13:36:26.865Z,30.32
2023-08-13T13:38:53.699Z,30.48
2023-08-13T13:41:20.536Z,30.80
2023-08-13T13:43:47.233Z,30.84
2023-08-13T13:46:14.210Z,30.63
2023-08-13T13:48:40.873Z,30.53
2023-08-13T13:51:07.539Z,30.48
2023-08-13T13:53:34.452Z,30.31
2023-08-13T13:56:01.233Z,30.55
2023-08-13T13:58:28.154Z,31.18
2023-08-13T14:00:55.700Z,30.59
2023-08-13T14:03:22.594Z,30.83
2023-08-13T14:05:55.836Z,30.57
2023-08-13T14:08:23.226Z,30.90
2023-08-13T14:11:08.353Z,30.84
2023-08-13T14:13:35.242Z,30.68
2023-08-13T14:16:03.878Z,30.64
2023-08-13T14:18:30.870Z,30.03
2023-08-13T14:20:57.763Z,30.25
2023-08-13T14:23:24.453Z,30.52
2023-08-13T14:25:51.402Z,30.26
2023-08-13T14:28:18.291Z,30.12
2023-08-13T14:33:26.092Z,29.76
2023-08-13T14:35:57.856Z,29.97
2023-08-13T14:38:34.221Z,29.60
2023-08-13T14:41:01.278Z,29.62
2023-08-13T14:43:28.741Z,29.67
2023-08-13T14:46:00.469Z,29.65
2023-08-13T14:48:27.633Z,29.74
2023-08-13T14:50:54.335Z,29.69
2023-08-13T14:53:21.092Z,29.65
2023-08-13T14:55:47.984Z,29.30
2023-08-13T15:00:55.912Z,29.32
2023-08-13T15:03:22.635Z,29.10
2023-08-13T15:05:50.962Z,29.33
2023-08-13T15:08:18.410Z,29.10
2023-08-13T15:10:48.530Z,29.13
2023-08-13T15:13:20.198Z,29.06
2023-08-13T15:15:47.107Z,28.92
2023-08-13T15:18:14.027Z,28.86
2023-08-13T15:20:40.636Z,28.75
2023-08-13T15:23:07.505Z,28.67
2023-08-13T15:25:44.914Z,28.68
2023-08-13T15:28:21.787Z,28.78
2023-08-13T15:30:48.518Z,28.45
2023-08-13T15:33:15.236Z,28.36
2023-08-13T15:35:55.687Z,28.70
2023-08-13T15:38:23.181Z,28.64
2023-08-13T15:40:50.336Z,28.58
2023-08-13T15:43:17.147Z,28.94
2023-08-13T15:45:43.998Z,28.66
2023-08-13T15:48:10.976Z,28.48
2023-08-13T15:50:37.816Z,28.44
2023-08-13T15:53:04.803Z,28.40
2023-08-13T15:55:34.679Z,28.51
2023-08-13T15:58:01.631Z,28.48
2023-08-13T16:00:28.716Z,28.45
2023-08-13T16:02:56.144Z,28.61
2023-08-13T16:05:23.010Z,28.37
2023-08-13T16:08:14.928Z,28.47
2023-08-13T16:10:41.769Z,28.44
2023-08-13T16:13:08.560Z,28.14
2023-08-13T16:15:35.304Z,28.20
2023-08-13T16:18:02.613Z,28.04
2023-08-13T16:20:29.469Z,28.21
2023-08-13T16:22:56.174Z,28.13
2023-08-13T16:25:22.929Z,28.13
2023-08-13T16:27:57.834Z,28.10
2023-08-13T16:30:24.573Z,28.04
2023-08-13T16:32:51.255Z,27.77
2023-08-13T16:35:29.472Z,27.73
2023-08-13T16:38:05.107Z,27.70
2023-08-13T16:40:31.952Z,27.64
2023-08-13T16:43:07.418Z,27.33
2023-08-13T16:45:36.155Z,27.20
2023-08-13T16:48:09.205Z,27.41
2023-08-13T16:50:36.015Z,27.50
2023-08-13T16:53:05.901Z,27.41
2023-08-13T16:56:04.287Z,27.37
2023-08-13T16:58:50.132Z,27.31
2023-08-13T17:01:16.926Z,27.60
2023-08-13T17:03:50.583Z,27.32
2023-08-13T17:06:17.310Z,27.29
2023-08-13T17:08:48.929Z,27.00
2023-08-13T17:11:16.136Z,26.93
2023-08-13T17:13:42.912Z,27.15
2023-08-13T17:16:09.912Z,26.57
2023-08-13T17:18:36.648Z,26.26
2023-08-13T17:21:03.608Z,26.60
2023-08-13T17:23:30.647Z,26.48
2023-08-13T17:25:57.331Z,26.48
2023-08-13T17:28:24.020Z,26.54
2023-08-13T17:30:52.035Z,26.24
2023-08-13T17:33:18.777Z,25.93
2023-08-13T17:38:27.148Z,25.93
2023-08-13T17:40:54.302Z,26.08
2023-08-13T17:43:21.042Z,25.60
2023-08-13T17:45:47.859Z,25.80
2023-08-13T17:48:16.495Z,25.63
2023-08-13T17:50:44.655Z,25.30
2023-08-13T17:53:12.817Z,25.39
2023-08-13T17:55:41.007Z,25.28
2023-08-13T17:58:12.893Z,25.08
2023-08-13T18:00:39.527Z,24.78
2023-08-13T18:03:06.349Z,24.76
2023-08-13T18:05:33.158Z,24.95
2023-08-13T18:08:12.193Z,24.74
2023-08-13T18:10:42.307Z,24.35
2023-08-13T18:13:09.123Z,24.29
2023-08-13T18:15:35.795Z,24.16
2023-08-13T18:18:13.295Z,24.41
2023-08-13T18:20:40.532Z,24.20
2023-08-13T18:23:07.339Z,23.97
2023-08-13T18:25:34.066Z,24.07
2023-08-13T18:28:02.390Z,23.99
2023-08-13T18:30:29.694Z,24.12
2023-08-13T18:32:56.507Z,24.30
2023-08-13T18:35:23.755Z,24.22
2023-08-13T18:37:50.480Z,24.08
2023-08-13T18:40:17.158Z,24.04
2023-08-13T18:42:44.152Z,24.19
2023-08-13T18:45:11.143Z,24.03
2023-08-13T18:47:37.997Z,24.37
2023-08-13T18:50:05.186Z,23.55
2023-08-13T18:52:44.790Z,23.50
2023-08-13T18:55:11.946Z,23.25
2023-08-13T18:58:00.474Z,23.52
2023-08-13T19:00:27.874Z,23.63
2023-08-13T19:02:54.718Z,23.64
2023-08-13T19:05:21.703Z,23.64
2023-08-13T19:07:48.752Z,23.48
2023-08-13T19:10:15.607Z,23.95
2023-08-13T19:12:42.618Z,23.65
2023-08-13T19:15:11.104Z,23.72
2023-08-13T19:17:37.946Z,23.49
2023-08-13T19:20:06.340Z,23.30
2023-08-13T19:25:15.153Z,23.85
2023-08-13T19:27:47.906Z,23.67
2023-08-13T19:30:14.832Z,23.38
2023-08-13T19:32:41.988Z,23.37
2023-08-13T19:35:09.461Z,23.48
2023-08-13T19:37:36.186Z,23.40
2023-08-13T19:40:09.323Z,23.27
2023-08-13T19:42:36.248Z,22.51
2023-08-13T19:45:04.238Z,22.70
2023-08-13T19:47:31.294Z,22.50
2023-08-13T19:49:58.799Z,22.85
2023-08-13T19:55:21.038Z,22.85
2023-08-13T19:58:09.495Z,22.68
2023-08-13T20:00:36.697Z,22.80
2023-08-13T20:03:03.595Z,22.79
2023-08-13T20:05:30.607Z,23.03
2023-08-13T20:08:06.575Z,22.94
2023-08-13T20:10:33.487Z,22.91
2023-08-13T20:13:00.509Z,22.58
2023-08-13T20:15:27.697Z,22.32
2023-08-13T20:17:54.846Z,22.33
2023-08-13T20:20:21.806Z,22.57
2023-08-13T20:22:49.195Z,22.66
2023-08-13T20:25:27.779Z,22.40
2023-08-13T20:27:54.696Z,22.41
2023-08-13T20:30:21.711Z,22.17
2023-08-13T20:32:49.482Z,21.89
2023-08-13T20:35:21.899Z,22.52
2023-08-13T20:37:48.708Z,22.43
2023-08-13T20:40:15.474Z,21.84
2023-08-13T20:42:42.610Z,21.72
2023-08-13T20:45:11.593Z,22.09
2023-08-13T20:47:38.500Z,22.02
2023-08-13T20:50:07.661Z,22.64
2023-08-13T20:52:44.303Z,22.43
2023-08-13T20:55:11.074Z,21.97
2023-08-13T20:57:37.953Z,22.41
2023-08-13T21:00:08.214Z,22.39
2023-08-13T21:02:34.966Z,22.10
2023-08-13T21:05:01.654Z,22.27
2023-08-13T21:07:43.273Z,22.40
2023-08-13T21:45:36.957Z,22.05
2023-08-13T21:48:03.714Z,22.23
2023-08-13T21:50:30.387Z,22.55
2023-08-13T21:52:57.144Z,22.51
2023-08-13T21:55:23.779Z,22.30
2023-08-13T21:57:50.432Z,22.50
2023-08-13T22:00:17.414Z,22.17
2023-08-13T22:02:44.656Z,21.79
2023-08-13T22:05:11.701Z,21.88
2023-08-13T22:07:38.453Z,21.65
2023-08-13T22:10:05.391Z,21.35
2023-08-13T22:12:32.316Z,21.22
2023-08-13T22:15:01.217Z,21.36
2023-08-13T22:17:27.984Z,21.21
2023-08-13T22:19:59.067Z,21.69
2023-08-13T22:22:29.481Z,21.63
2023-08-13T22:24:56.200Z,21.25
2023-08-13T22:27:22.979Z,21.57
2023-08-13T22:29:49.696Z,21.38
2023-08-13T22:32:16.962Z,21.48
2023-08-13T22:34:44.044Z,20.94
2023-08-13T22:37:11.321Z,21.31
2023-08-13T22:39:38.247Z,21.22
2023-08-13T22:42:05.188Z,20.92
2023-08-13T22:44:31.928Z,21.42
2023-08-13T22:46:58.621Z,21.39
2023-08-13T22:49:32.157Z,21.72
2023-08-13T22:51:58.850Z,21.40
2023-08-13T22:54:25.892Z,21.67
2023-08-13T22:56:52.681Z,21.36
2023-08-13T22:59:19.434Z,20.97
2023-08-13T23:01:46.336Z,21.42
2023-08-13T23:04:13.155Z,21.21
2023-08-13T23:06:40.308Z,20.50
2023-08-13T23:09:10.074Z,20.55
2023-08-13T23:11:36.949Z,21.12
2023-08-13T23:14:04.784Z,20.79
2023-08-13T23:16:32.001Z,21.23
2023-08-13T23:18:58.828Z,21.06
2023-08-13T23:21:28.475Z,21.00
2023-08-13T23:23:57.429Z,20.83
2023-08-13T23:26:25.344Z,20.82
2023-08-13T23:28:56.327Z,20.54
2023-08-13T23:31:23.097Z,20.99
2023-08-13T23:33:50.175Z,21.51
2023-08-13T23:36:16.934Z,21.42
2023-08-13T23:38:43.980Z,21.08
2023-08-13T23:41:10.922Z,21.28
2023-08-13T23:43:38.513Z,21.04
2023-08-13T23:46:05.839Z,21.23
2023-08-13T23:48:32.578Z,21.17
2023-08-13T23:51:02.989Z,20.85
2023-08-13T23:53:32.993Z,20.92
2023-08-13T23:56:03.169Z,21.38
2023-08-13T23:58:29.822Z,21.22
